sensor_id;sensor_type;location;lat;lon;timestamp;temperature;humidity
32787;DHT22;19139;49.372;8.580;2023-03-14T00:01:17;19.70;88.10
32787;DHT22;19139;49.372;8.580;2023-03-14T00:03:44;19.80;88.20
32787;DHT22;19139;49.372;8.580;2023-03-14T00:06:12;19.70;88.10
32787;DHT22;19139;49.372;8.580;2023-03-14T00:08:40;19.70;88.10
32787;DHT22;19139;49.372;8.580;2023-03-14T00:11:12;19.80;88.20
32787;DHT22;19139;49.372;8.580;2023-03-14T00:13:40;19.70;88.10
32787;DHT22;19139;49.372;8.580;2023-03-14T00:16:11;19.70;88.10
32787;DHT22;19139;49.372;8.580;2023-03-14T00:18:39;19.70;88.10
32787;DHT22;19139;49.372;8.580;2023-03-14T00:21:07;19.80;88.10
32787;DHT22;19139;49.372;8.580;2023-03-14T00:23:35;19.70;88.10
32787;DHT22;19139;49.372;8.580;2023-03-14T00:26:09;19.80;88.90
32787;DHT22;19139;49.372;8.580;2023-03-14T00:28:36;19.70;88.10
32787;DHT22;19139;49.372;8.580;2023-03-14T00:31:04;19.70;88.00
32787;DHT22;19139;49.372;8.580;2023-03-14T00:33:31;19.70;88.00
32787;DHT22;19139;49.372;8.580;2023-03-14T00:36:00;19.70;88.00
32787;DHT22;19139;49.372;8.580;2023-03-14T00:38:27;19.70;88.00
32787;DHT22;19139;49.372;8.580;2023-03-14T00:40:54;19.70;87.90
32787;DHT22;19139;49.372;8.580;2023-03-14T00:43:21;19.70;88.00
32787;DHT22;19139;49.372;8.580;2023-03-14T00:45:49;19.70;87.90
32787;DHT22;19139;49.372;8.580;2023-03-14T00:48:16;19.70;87.90
32787;DHT22;19139;49.372;8.580;2023-03-14T00:50:43;19.70;87.90
32787;DHT22;19139;49.372;8.580;2023-03-14T00:53:10;19.70;87.90
32787;DHT22;19139;49.372;8.580;2023-03-14T00:55:38;19.70;87.90
32787;DHT22;19139;49.372;8.580;2023-03-14T00:58:05;19.70;87.90
32787;DHT22;19139;49.372;8.580;2023-03-14T01:00:32;19.70;87.90
32787;DHT22;19139;49.372;8.580;2023-03-14T01:03:00;19.70;87.90
32787;DHT22;19139;49.372;8.580;2023-03-14T01:05:27;19.70;87.90
32787;DHT22;19139;49.372;8.580;2023-03-14T01:07:54;19.70;87.80
32787;DHT22;19139;49.372;8.580;2023-03-14T01:10:21;19.70;87.80
32787;DHT22;19139;49.372;8.580;2023-03-14T01:12:48;19.70;87.80
32787;DHT22;19139;49.372;8.580;2023-03-14T01:15:15;19.70;87.80
32787;DHT22;19139;49.372;8.580;2023-03-14T01:17:41;19.70;87.80
32787;DHT22;19139;49.372;8.580;2023-03-14T01:20:10;19.70;87.80
32787;DHT22;19139;49.372;8.580;2023-03-14T01:22:38;19.70;87.70
32787;DHT22;19139;49.372;8.580;2023-03-14T01:25:07;19.70;87.70
32787;DHT22;19139;49.372;8.580;2023-03-14T01:27:35;19.70;87.70
32787;DHT22;19139;49.372;8.580;2023-03-14T01:30:02;19.70;87.70
32787;DHT22;19139;49.372;8.580;2023-03-14T01:32:29;19.70;87.70
32787;DHT22;19139;49.372;8.580;2023-03-14T01:34:56;19.60;87.60
32787;DHT22;19139;49.372;8.580;2023-03-14T01:37:22;19.70;87.70
32787;DHT22;19139;49.372;8.580;2023-03-14T01:39:49;19.70;87.70
32787;DHT22;19139;49.372;8.580;2023-03-14T01:42:16;19.70;87.70
32787;DHT22;19139;49.372;8.580;2023-03-14T01:47:16;19.70;87.70
32787;DHT22;19139;49.372;8.580;2023-03-14T01:49:46;19.70;87.70
32787;DHT22;19139;49.372;8.580;2023-03-14T01:52:32;19.70;87.70
32787;DHT22;19139;49.372;8.580;2023-03-14T01:55:07;19.70;87.60
32787;DHT22;19139;49.372;8.580;2023-03-14T01:57:39;19.60;87.60
32787;DHT22;19139;49.372;8.580;2023-03-14T02:00:11;19.60;87.80
32787;DHT22;19139;49.372;8.580;2023-03-14T02:02:45;19.60;87.50
32787;DHT22;19139;49.372;8.580;2023-03-14T02:05:14;19.60;87.50
32787;DHT22;19139;49.372;8.580;2023-03-14T02:07:48;19.60;87.50
32787;DHT22;19139;49.372;8.580;2023-03-14T02:10:17;19.60;87.50
32787;DHT22;19139;49.372;8.580;2023-03-14T02:12:47;19.60;87.50
32787;DHT22;19139;49.372;8.580;2023-03-14T02:15:14;19.60;87.50
32787;DHT22;19139;49.372;8.580;2023-03-14T02:17:42;19.60;87.50
32787;DHT22;19139;49.372;8.580;2023-03-14T02:22:52;19.60;87.50
32787;DHT22;19139;49.372;8.580;2023-03-14T02:25:38;19.60;87.50
32787;DHT22;19139;49.372;8.580;2023-03-14T02:28:07;19.60;87.50
32787;DHT22;19139;49.372;8.580;2023-03-14T02:30:34;19.60;87.40
32787;DHT22;19139;49.372;8.580;2023-03-14T02:33:08;19.60;87.40
32787;DHT22;19139;49.372;8.580;2023-03-14T02:35:41;19.60;87.40
32787;DHT22;19139;49.372;8.580;2023-03-14T02:38:19;19.60;87.40
32787;DHT22;19139;49.372;8.580;2023-03-14T02:40:48;19.60;87.40
32787;DHT22;19139;49.372;8.580;2023-03-14T02:43:14;19.60;87.40
32787;DHT22;19139;49.372;8.580;2023-03-14T02:45:48;19.60;87.40
32787;DHT22;19139;49.372;8.580;2023-03-14T02:48:25;19.60;87.40
32787;DHT22;19139;49.372;8.580;2023-03-14T02:50:54;19.50;87.30
32787;DHT22;19139;49.372;8.580;2023-03-14T02:53:25;19.60;87.40
32787;DHT22;19139;49.372;8.580;2023-03-14T02:55:52;19.60;87.40
32787;DHT22;19139;49.372;8.580;2023-03-14T02:58:19;19.60;87.30
32787;DHT22;19139;49.372;8.580;2023-03-14T03:00:46;19.60;87.30
32787;DHT22;19139;49.372;8.580;2023-03-14T03:03:13;19.50;87.20
32787;DHT22;19139;49.372;8.580;2023-03-14T03:05:40;19.60;87.30
32787;DHT22;19139;49.372;8.580;2023-03-14T03:08:08;19.50;87.20
32787;DHT22;19139;49.372;8.580;2023-03-14T03:10:35;19.60;87.20
32787;DHT22;19139;49.372;8.580;2023-03-14T03:13:01;19.50;87.20
32787;DHT22;19139;49.372;8.580;2023-03-14T03:15:28;19.50;87.20
32787;DHT22;19139;49.372;8.580;2023-03-14T03:17:55;19.50;87.20
32787;DHT22;19139;49.372;8.580;2023-03-14T03:20:21;19.50;87.20
32787;DHT22;19139;49.372;8.580;2023-03-14T03:22:48;19.60;87.20
32787;DHT22;19139;49.372;8.580;2023-03-14T03:25:16;19.50;87.20
32787;DHT22;19139;49.372;8.580;2023-03-14T03:27:42;19.50;87.10
32787;DHT22;19139;49.372;8.580;2023-03-14T03:30:09;19.50;87.10
32787;DHT22;19139;49.372;8.580;2023-03-14T03:32:36;19.50;87.00
32787;DHT22;19139;49.372;8.580;2023-03-14T03:35:04;19.60;87.20
32787;DHT22;19139;49.372;8.580;2023-03-14T03:37:31;19.60;87.20
32787;DHT22;19139;49.372;8.580;2023-03-14T03:39:59;19.50;87.20
32787;DHT22;19139;49.372;8.580;2023-03-14T03:42:27;19.50;87.00
32787;DHT22;19139;49.372;8.580;2023-03-14T03:44:54;19.50;87.00
32787;DHT22;19139;49.372;8.580;2023-03-14T03:47:20;19.60;87.10
32787;DHT22;19139;49.372;8.580;2023-03-14T03:49:47;19.50;87.00
32787;DHT22;19139;49.372;8.580;2023-03-14T03:52:13;19.50;87.00
32787;DHT22;19139;49.372;8.580;2023-03-14T03:54:40;19.50;87.10
32787;DHT22;19139;49.372;8.580;2023-03-14T03:57:07;19.60;87.10
32787;DHT22;19139;49.372;8.580;2023-03-14T03:59:33;19.60;87.10
32787;DHT22;19139;49.372;8.580;2023-03-14T04:02:00;19.50;87.00
32787;DHT22;19139;49.372;8.580;2023-03-14T04:04:27;19.50;87.00
32787;DHT22;19139;49.372;8.580;2023-03-14T04:06:54;19.50;87.00
32787;DHT22;19139;49.372;8.580;2023-03-14T04:09:21;19.50;87.00
32787;DHT22;19139;49.372;8.580;2023-03-14T04:11:47;19.50;87.00
32787;DHT22;19139;49.372;8.580;2023-03-14T04:14:14;19.50;87.00
32787;DHT22;19139;49.372;8.580;2023-03-14T04:16:40;19.50;87.00
32787;DHT22;19139;49.372;8.580;2023-03-14T04:19:07;19.50;87.00
32787;DHT22;19139;49.372;8.580;2023-03-14T04:21:34;19.50;87.00
32787;DHT22;19139;49.372;8.580;2023-03-14T04:24:00;19.50;87.00
32787;DHT22;19139;49.372;8.580;2023-03-14T04:26:27;19.50;87.00
32787;DHT22;19139;49.372;8.580;2023-03-14T04:28:53;19.50;87.00
32787;DHT22;19139;49.372;8.580;2023-03-14T04:31:21;19.50;87.00
32787;DHT22;19139;49.372;8.580;2023-03-14T04:33:48;19.50;87.00
32787;DHT22;19139;49.372;8.580;2023-03-14T04:36:14;19.50;86.90
32787;DHT22;19139;49.372;8.580;2023-03-14T04:38:41;19.50;87.00
32787;DHT22;19139;49.372;8.580;2023-03-14T04:41:08;19.50;86.90
32787;DHT22;19139;49.372;8.580;2023-03-14T04:43:34;19.50;86.90
32787;DHT22;19139;49.372;8.580;2023-03-14T04:46:01;19.50;86.80
32787;DHT22;19139;49.372;8.580;2023-03-14T04:48:28;19.50;86.90
32787;DHT22;19139;49.372;8.580;2023-03-14T04:50:55;19.50;86.90
32787;DHT22;19139;49.372;8.580;2023-03-14T04:53:22;19.50;86.80
32787;DHT22;19139;49.372;8.580;2023-03-14T04:55:50;19.50;86.90
32787;DHT22;19139;49.372;8.580;2023-03-14T04:58:17;19.50;86.90
32787;DHT22;19139;49.372;8.580;2023-03-14T05:00:45;19.50;86.90
32787;DHT22;19139;49.372;8.580;2023-03-14T05:03:12;19.50;86.80
32787;DHT22;19139;49.372;8.580;2023-03-14T05:05:40;19.50;86.90
32787;DHT22;19139;49.372;8.580;2023-03-14T05:08:07;19.50;86.90
32787;DHT22;19139;49.372;8.580;2023-03-14T05:10:34;19.50;86.90
32787;DHT22;19139;49.372;8.580;2023-03-14T05:13:00;19.50;86.90
32787;DHT22;19139;49.372;8.580;2023-03-14T05:15:27;19.50;86.90
32787;DHT22;19139;49.372;8.580;2023-03-14T05:17:53;19.50;86.90
32787;DHT22;19139;49.372;8.580;2023-03-14T05:20:21;19.50;86.90
32787;DHT22;19139;49.372;8.580;2023-03-14T05:22:47;19.50;86.90
32787;DHT22;19139;49.372;8.580;2023-03-14T05:25:14;19.50;86.90
32787;DHT22;19139;49.372;8.580;2023-03-14T05:27:41;19.50;86.90
32787;DHT22;19139;49.372;8.580;2023-03-14T05:30:08;19.50;86.90
32787;DHT22;19139;49.372;8.580;2023-03-14T05:32:35;19.50;86.90
32787;DHT22;19139;49.372;8.580;2023-03-14T05:35:02;19.50;86.80
32787;DHT22;19139;49.372;8.580;2023-03-14T05:37:28;19.50;86.80
32787;DHT22;19139;49.372;8.580;2023-03-14T05:39:55;19.50;86.80
32787;DHT22;19139;49.372;8.580;2023-03-14T05:42:21;19.50;86.80
32787;DHT22;19139;49.372;8.580;2023-03-14T05:44:48;19.50;86.80
32787;DHT22;19139;49.372;8.580;2023-03-14T05:47:15;19.40;86.80
32787;DHT22;19139;49.372;8.580;2023-03-14T05:49:41;19.50;86.80
32787;DHT22;19139;49.372;8.580;2023-03-14T05:52:08;19.50;86.80
32787;DHT22;19139;49.372;8.580;2023-03-14T05:54:34;19.40;86.70
32787;DHT22;19139;49.372;8.580;2023-03-14T05:57:01;19.50;86.70
32787;DHT22;19139;49.372;8.580;2023-03-14T05:59:28;19.50;86.70
32787;DHT22;19139;49.372;8.580;2023-03-14T06:01:54;19.40;86.70
32787;DHT22;19139;49.372;8.580;2023-03-14T06:04:21;19.40;86.70
32787;DHT22;19139;49.372;8.580;2023-03-14T06:06:47;19.40;86.70
32787;DHT22;19139;49.372;8.580;2023-03-14T06:09:14;19.50;86.70
32787;DHT22;19139;49.372;8.580;2023-03-14T06:11:41;19.40;86.70
32787;DHT22;19139;49.372;8.580;2023-03-14T06:14:07;19.40;86.70
32787;DHT22;19139;49.372;8.580;2023-03-14T06:16:34;19.40;86.70
32787;DHT22;19139;49.372;8.580;2023-03-14T06:19:01;19.40;86.70
32787;DHT22;19139;49.372;8.580;2023-03-14T06:21:27;19.40;86.60
32787;DHT22;19139;49.372;8.580;2023-03-14T06:23:54;19.40;86.60
32787;DHT22;19139;49.372;8.580;2023-03-14T06:26:21;19.40;86.70
32787;DHT22;19139;49.372;8.580;2023-03-14T06:28:49;19.40;86.50
32787;DHT22;19139;49.372;8.580;2023-03-14T06:31:17;19.40;86.50
32787;DHT22;19139;49.372;8.580;2023-03-14T06:33:44;19.40;86.50
32787;DHT22;19139;49.372;8.580;2023-03-14T06:36:10;19.40;86.50
32787;DHT22;19139;49.372;8.580;2023-03-14T06:38:37;19.40;86.50
32787;DHT22;19139;49.372;8.580;2023-03-14T06:41:07;19.40;86.50
32787;DHT22;19139;49.372;8.580;2023-03-14T06:43:34;19.40;86.50
32787;DHT22;19139;49.372;8.580;2023-03-14T06:46:00;19.40;86.50
32787;DHT22;19139;49.372;8.580;2023-03-14T06:48:27;19.40;86.50
32787;DHT22;19139;49.372;8.580;2023-03-14T06:50:54;19.40;86.50
32787;DHT22;19139;49.372;8.580;2023-03-14T06:53:21;19.40;86.40
32787;DHT22;19139;49.372;8.580;2023-03-14T06:55:48;19.40;86.40
32787;DHT22;19139;49.372;8.580;2023-03-14T06:58:15;19.40;86.40
32787;DHT22;19139;49.372;8.580;2023-03-14T07:00:41;19.40;86.40
32787;DHT22;19139;49.372;8.580;2023-03-14T07:03:09;19.40;86.40
32787;DHT22;19139;49.372;8.580;2023-03-14T07:05:38;19.40;86.40
32787;DHT22;19139;49.372;8.580;2023-03-14T07:08:07;19.40;86.30
32787;DHT22;19139;49.372;8.580;2023-03-14T07:10:34;19.50;86.70
32787;DHT22;19139;49.372;8.580;2023-03-14T07:13:01;19.50;87.00
32787;DHT22;19139;49.372;8.580;2023-03-14T07:15:28;19.50;87.50
32787;DHT22;19139;49.372;8.580;2023-03-14T07:17:54;19.50;87.70
32787;DHT22;19139;49.372;8.580;2023-03-14T07:20:21;19.50;88.00
32787;DHT22;19139;49.372;8.580;2023-03-14T07:22:48;19.50;88.20
32787;DHT22;19139;49.372;8.580;2023-03-14T07:25:16;19.50;88.40
32787;DHT22;19139;49.372;8.580;2023-03-14T07:27:44;19.50;88.30
32787;DHT22;19139;49.372;8.580;2023-03-14T07:30:12;19.50;88.60
32787;DHT22;19139;49.372;8.580;2023-03-14T07:32:38;19.60;88.80
32787;DHT22;19139;49.372;8.580;2023-03-14T07:35:06;19.60;88.90
32787;DHT22;19139;49.372;8.580;2023-03-14T07:37:32;19.60;89.10
32787;DHT22;19139;49.372;8.580;2023-03-14T07:39:59;19.60;89.20
32787;DHT22;19139;49.372;8.580;2023-03-14T07:42:26;19.60;88.90
32787;DHT22;19139;49.372;8.580;2023-03-14T07:44:52;19.50;88.30
32787;DHT22;19139;49.372;8.580;2023-03-14T07:47:19;19.50;88.30
32787;DHT22;19139;49.372;8.580;2023-03-14T07:49:46;19.40;88.30
32787;DHT22;19139;49.372;8.580;2023-03-14T07:52:12;19.40;88.10
32787;DHT22;19139;49.372;8.580;2023-03-14T07:54:39;19.30;88.10
32787;DHT22;19139;49.372;8.580;2023-03-14T07:57:05;19.30;88.10
32787;DHT22;19139;49.372;8.580;2023-03-14T07:59:32;19.20;87.70
32787;DHT22;19139;49.372;8.580;2023-03-14T08:01:59;19.20;87.70
32787;DHT22;19139;49.372;8.580;2023-03-14T08:04:25;19.20;87.60
32787;DHT22;19139;49.372;8.580;2023-03-14T08:06:53;19.10;87.60
32787;DHT22;19139;49.372;8.580;2023-03-14T08:09:20;19.10;87.70
32787;DHT22;19139;49.372;8.580;2023-03-14T08:11:47;19.00;87.60
32787;DHT22;19139;49.372;8.580;2023-03-14T08:14:14;19.10;87.70
32787;DHT22;19139;49.372;8.580;2023-03-14T08:16:40;19.00;87.80
32787;DHT22;19139;49.372;8.580;2023-03-14T08:19:07;19.00;87.80
32787;DHT22;19139;49.372;8.580;2023-03-14T08:21:33;19.10;87.80
32787;DHT22;19139;49.372;8.580;2023-03-14T08:24:00;19.20;87.90
32787;DHT22;19139;49.372;8.580;2023-03-14T08:26:27;19.20;87.60
32787;DHT22;19139;49.372;8.580;2023-03-14T08:28:53;19.20;87.70
32787;DHT22;19139;49.372;8.580;2023-03-14T08:31:20;19.30;87.60
32787;DHT22;19139;49.372;8.580;2023-03-14T08:33:47;19.30;87.50
32787;DHT22;19139;49.372;8.580;2023-03-14T08:36:14;19.30;87.50
32787;DHT22;19139;49.372;8.580;2023-03-14T08:38:40;19.30;87.30
32787;DHT22;19139;49.372;8.580;2023-03-14T08:41:08;19.30;87.30
32787;DHT22;19139;49.372;8.580;2023-03-14T08:43:35;19.40;87.40
32787;DHT22;19139;49.372;8.580;2023-03-14T08:46:02;19.40;87.30
32787;DHT22;19139;49.372;8.580;2023-03-14T08:48:30;19.30;87.20
32787;DHT22;19139;49.372;8.580;2023-03-14T08:51:04;19.40;87.30
32787;DHT22;19139;49.372;8.580;2023-03-14T08:53:30;19.40;87.20
32787;DHT22;19139;49.372;8.580;2023-03-14T08:55:57;19.40;87.10
32787;DHT22;19139;49.372;8.580;2023-03-14T08:58:24;19.40;87.20
32787;DHT22;19139;49.372;8.580;2023-03-14T09:00:51;19.40;87.20
32787;DHT22;19139;49.372;8.580;2023-03-14T09:03:17;19.40;87.10
32787;DHT22;19139;49.372;8.580;2023-03-14T09:05:44;19.40;87.10
32787;DHT22;19139;49.372;8.580;2023-03-14T09:08:11;19.40;87.10
32787;DHT22;19139;49.372;8.580;2023-03-14T09:10:37;19.40;87.10
32787;DHT22;19139;49.372;8.580;2023-03-14T09:13:05;19.40;87.10
32787;DHT22;19139;49.372;8.580;2023-03-14T09:15:32;19.40;87.00
32787;DHT22;19139;49.372;8.580;2023-03-14T09:17:59;19.40;87.10
32787;DHT22;19139;49.372;8.580;2023-03-14T09:20:25;19.40;87.00
32787;DHT22;19139;49.372;8.580;2023-03-14T09:22:53;19.40;87.00
32787;DHT22;19139;49.372;8.580;2023-03-14T09:25:20;19.40;86.90
32787;DHT22;19139;49.372;8.580;2023-03-14T09:27:46;19.40;87.00
32787;DHT22;19139;49.372;8.580;2023-03-14T09:30:13;19.40;86.90
32787;DHT22;19139;49.372;8.580;2023-03-14T09:32:39;19.40;87.00
32787;DHT22;19139;49.372;8.580;2023-03-14T09:35:06;19.40;86.90
32787;DHT22;19139;49.372;8.580;2023-03-14T09:37:33;19.40;87.00
32787;DHT22;19139;49.372;8.580;2023-03-14T09:40:00;19.40;86.90
32787;DHT22;19139;49.372;8.580;2023-03-14T09:42:27;19.40;86.90
32787;DHT22;19139;49.372;8.580;2023-03-14T09:45:02;19.40;86.90
32787;DHT22;19139;49.372;8.580;2023-03-14T09:47:29;19.40;86.90
32787;DHT22;19139;49.372;8.580;2023-03-14T09:49:56;19.40;86.90
32787;DHT22;19139;49.372;8.580;2023-03-14T09:52:36;19.40;86.90
32787;DHT22;19139;49.372;8.580;2023-03-14T09:55:10;19.40;86.90
32787;DHT22;19139;49.372;8.580;2023-03-14T09:57:39;19.40;86.80
32787;DHT22;19139;49.372;8.580;2023-03-14T10:00:21;19.40;86.90
32787;DHT22;19139;49.372;8.580;2023-03-14T10:05:41;19.40;86.80
32787;DHT22;19139;49.372;8.580;2023-03-14T10:08:11;19.40;86.90
32787;DHT22;19139;49.372;8.580;2023-03-14T10:10:38;19.40;86.70
32787;DHT22;19139;49.372;8.580;2023-03-14T10:13:14;19.40;87.50
32787;DHT22;19139;49.372;8.580;2023-03-14T10:15:47;19.40;86.70
32787;DHT22;19139;49.372;8.580;2023-03-14T10:18:14;19.40;86.70
32787;DHT22;19139;49.372;8.580;2023-03-14T10:20:43;19.40;86.70
32787;DHT22;19139;49.372;8.580;2023-03-14T10:25:42;19.40;86.70
32787;DHT22;19139;49.372;8.580;2023-03-14T10:28:25;19.40;86.70
32787;DHT22;19139;49.372;8.580;2023-03-14T10:30:52;19.50;86.70
32787;DHT22;19139;49.372;8.580;2023-03-14T10:33:25;19.50;86.70
32787;DHT22;19139;49.372;8.580;2023-03-14T10:36:03;19.50;86.70
32787;DHT22;19139;49.372;8.580;2023-03-14T10:38:34;19.50;86.70
32787;DHT22;19139;49.372;8.580;2023-03-14T10:41:19;19.50;86.70
32787;DHT22;19139;49.372;8.580;2023-03-14T10:43:50;19.50;86.70
32787;DHT22;19139;49.372;8.580;2023-03-14T10:46:19;19.50;86.70
32787;DHT22;19139;49.372;8.580;2023-03-14T10:48:46;19.40;86.70
32787;DHT22;19139;49.372;8.580;2023-03-14T10:53:50;19.50;86.70
32787;DHT22;19139;49.372;8.580;2023-03-14T10:56:23;19.40;86.70
32787;DHT22;19139;49.372;8.580;2023-03-14T10:58:53;19.40;86.70
32787;DHT22;19139;49.372;8.580;2023-03-14T11:04:27;19.40;86.70
32787;DHT22;19139;49.372;8.580;2023-03-14T11:10:38;19.40;86.70
32787;DHT22;19139;49.372;8.580;2023-03-14T11:13:23;19.40;86.70
32787;DHT22;19139;49.372;8.580;2023-03-14T11:19:09;19.40;86.80
32787;DHT22;19139;49.372;8.580;2023-03-14T11:21:55;19.40;86.80
32787;DHT22;19139;49.372;8.580;2023-03-14T11:25:35;19.40;86.80
32787;DHT22;19139;49.372;8.580;2023-03-14T11:30:39;19.40;86.90
32787;DHT22;19139;49.372;8.580;2023-03-14T11:33:16;19.40;86.90
32787;DHT22;19139;49.372;8.580;2023-03-14T11:38:38;19.40;87.70
32787;DHT22;19139;49.372;8.580;2023-03-14T11:41:16;18.80;89.30
32787;DHT22;19139;49.372;8.580;2023-03-14T11:43:48;18.60;90.20
32787;DHT22;19139;49.372;8.580;2023-03-14T11:46:19;18.40;90.50
32787;DHT22;19139;49.372;8.580;2023-03-14T11:48:57;18.20;90.70
32787;DHT22;19139;49.372;8.580;2023-03-14T11:51:29;18.00;90.70
32787;DHT22;19139;49.372;8.580;2023-03-14T11:54:11;17.80;90.80
32787;DHT22;19139;49.372;8.580;2023-03-14T11:56:53;17.70;91.00
32787;DHT22;19139;49.372;8.580;2023-03-14T12:01:57;17.50;90.20
32787;DHT22;19139;49.372;8.580;2023-03-14T12:07:19;17.50;90.20
32787;DHT22;19139;49.372;8.580;2023-03-14T12:09:48;17.40;90.30
32787;DHT22;19139;49.372;8.580;2023-03-14T12:12:22;17.60;90.20
32787;DHT22;19139;49.372;8.580;2023-03-14T12:14:54;17.80;89.90
32787;DHT22;19139;49.372;8.580;2023-03-14T12:17:26;18.00;89.40
32787;DHT22;19139;49.372;8.580;2023-03-14T12:22:42;18.30;89.10
32787;DHT22;19139;49.372;8.580;2023-03-14T12:27:48;18.50;89.00
32787;DHT22;19139;49.372;8.580;2023-03-14T12:30:18;18.60;89.00
32787;DHT22;19139;49.372;8.580;2023-03-14T12:35:48;18.70;89.10
32787;DHT22;19139;49.372;8.580;2023-03-14T12:38:49;18.70;89.20
32787;DHT22;19139;49.372;8.580;2023-03-14T12:41:42;18.80;89.40
32787;DHT22;19139;49.372;8.580;2023-03-14T12:49:49;18.80;89.00
32787;DHT22;19139;49.372;8.580;2023-03-14T12:52:20;18.80;88.90
32787;DHT22;19139;49.372;8.580;2023-03-14T12:55:00;18.90;88.80
32787;DHT22;19139;49.372;8.580;2023-03-14T12:57:50;18.90;89.00
32787;DHT22;19139;49.372;8.580;2023-03-14T13:00:24;18.90;88.90
32787;DHT22;19139;49.372;8.580;2023-03-14T13:03:02;18.90;89.10
32787;DHT22;19139;49.372;8.580;2023-03-14T13:05:52;18.90;88.90
32787;DHT22;19139;49.372;8.580;2023-03-14T13:08:33;18.90;88.80
32787;DHT22;19139;49.372;8.580;2023-03-14T13:11:02;19.00;88.80
32787;DHT22;19139;49.372;8.580;2023-03-14T13:13:30;19.00;88.60
32787;DHT22;19139;49.372;8.580;2023-03-14T13:16:01;19.00;88.50
32787;DHT22;19139;49.372;8.580;2023-03-14T13:18:41;19.00;89.20
32787;DHT22;19139;49.372;8.580;2023-03-14T13:24:26;19.00;88.30
32787;DHT22;19139;49.372;8.580;2023-03-14T13:26:56;19.00;88.20
32787;DHT22;19139;49.372;8.580;2023-03-14T13:29:29;19.00;88.10
32787;DHT22;19139;49.372;8.580;2023-03-14T13:32:00;19.00;88.00
32787;DHT22;19139;49.372;8.580;2023-03-14T13:34:32;19.00;88.00
32787;DHT22;19139;49.372;8.580;2023-03-14T13:37:00;19.00;88.00
32787;DHT22;19139;49.372;8.580;2023-03-14T13:39:28;19.10;88.00
32787;DHT22;19139;49.372;8.580;2023-03-14T13:41:58;19.10;87.90
32787;DHT22;19139;49.372;8.580;2023-03-14T13:44:36;19.10;88.00
32787;DHT22;19139;49.372;8.580;2023-03-14T13:47:09;19.00;87.80
32787;DHT22;19139;49.372;8.580;2023-03-14T13:49:38;19.10;87.80
32787;DHT22;19139;49.372;8.580;2023-03-14T13:54:47;19.10;87.60
32787;DHT22;19139;49.372;8.580;2023-03-14T13:57:14;19.10;87.60
32787;DHT22;19139;49.372;8.580;2023-03-14T13:59:40;19.10;87.50
32787;DHT22;19139;49.372;8.580;2023-03-14T14:02:13;19.10;87.40
32787;DHT22;19139;49.372;8.580;2023-03-14T14:04:44;19.10;87.50
32787;DHT22;19139;49.372;8.580;2023-03-14T14:07:15;19.10;87.30
32787;DHT22;19139;49.372;8.580;2023-03-14T14:09:48;19.10;87.40
32787;DHT22;19139;49.372;8.580;2023-03-14T14:12:38;19.10;87.30
32787;DHT22;19139;49.372;8.580;2023-03-14T14:15:28;19.10;87.20
32787;DHT22;19139;49.372;8.580;2023-03-14T14:18:01;19.20;87.30
32787;DHT22;19139;49.372;8.580;2023-03-14T14:20:44;19.20;87.30
32787;DHT22;19139;49.372;8.580;2023-03-14T14:23:17;19.10;87.10
32787;DHT22;19139;49.372;8.580;2023-03-14T14:25:48;19.10;87.10
32787;DHT22;19139;49.372;8.580;2023-03-14T14:28:23;19.10;87.00
32787;DHT22;19139;49.372;8.580;2023-03-14T14:33:43;19.10;86.90
32787;DHT22;19139;49.372;8.580;2023-03-14T14:36:17;19.20;86.90
32787;DHT22;19139;49.372;8.580;2023-03-14T14:38:53;19.20;86.90
32787;DHT22;19139;49.372;8.580;2023-03-14T14:41:20;19.30;87.00
32787;DHT22;19139;49.372;8.580;2023-03-14T14:43:47;19.30;87.40
32787;DHT22;19139;49.372;8.580;2023-03-14T14:46:17;19.30;87.60
32787;DHT22;19139;49.372;8.580;2023-03-14T14:48:44;19.30;87.90
32787;DHT22;19139;49.372;8.580;2023-03-14T14:51:24;19.30;88.20
32787;DHT22;19139;49.372;8.580;2023-03-14T14:54:03;19.30;88.20
32787;DHT22;19139;49.372;8.580;2023-03-14T14:56:29;19.30;88.40
32787;DHT22;19139;49.372;8.580;2023-03-14T14:59:00;19.40;88.60
32787;DHT22;19139;49.372;8.580;2023-03-14T15:01:34;19.40;88.70
32787;DHT22;19139;49.372;8.580;2023-03-14T15:04:01;19.40;88.70
32787;DHT22;19139;49.372;8.580;2023-03-14T15:06:30;19.40;88.80
32787;DHT22;19139;49.372;8.580;2023-03-14T15:08:57;19.40;89.00
32787;DHT22;19139;49.372;8.580;2023-03-14T15:11:25;19.40;89.00
32787;DHT22;19139;49.372;8.580;2023-03-14T15:13:53;19.40;89.10
32787;DHT22;19139;49.372;8.580;2023-03-14T15:16:27;19.40;89.20
32787;DHT22;19139;49.372;8.580;2023-03-14T15:18:56;19.40;89.20
32787;DHT22;19139;49.372;8.580;2023-03-14T15:21:24;19.40;89.20
32787;DHT22;19139;49.372;8.580;2023-03-14T15:23:51;19.40;89.30
32787;DHT22;19139;49.372;8.580;2023-03-14T15:26:21;19.50;89.30
32787;DHT22;19139;49.372;8.580;2023-03-14T15:28:48;19.50;89.40
32787;DHT22;19139;49.372;8.580;2023-03-14T15:31:17;19.50;89.50
32787;DHT22;19139;49.372;8.580;2023-03-14T15:33:45;19.50;89.70
32787;DHT22;19139;49.372;8.580;2023-03-14T15:38:48;19.50;89.70
32787;DHT22;19139;49.372;8.580;2023-03-14T15:41:15;19.50;89.70
32787;DHT22;19139;49.372;8.580;2023-03-14T15:43:42;19.50;89.70
32787;DHT22;19139;49.372;8.580;2023-03-14T15:46:10;19.60;89.90
32787;DHT22;19139;49.372;8.580;2023-03-14T15:48:37;19.60;89.90
32787;DHT22;19139;49.372;8.580;2023-03-14T15:51:03;19.60;89.90
32787;DHT22;19139;49.372;8.580;2023-03-14T15:53:30;19.60;89.70
32787;DHT22;19139;49.372;8.580;2023-03-14T15:55:57;19.70;89.90
32787;DHT22;19139;49.372;8.580;2023-03-14T15:58:23;19.70;89.90
32787;DHT22;19139;49.372;8.580;2023-03-14T16:00:51;19.70;89.90
32787;DHT22;19139;49.372;8.580;2023-03-14T16:03:17;19.70;89.90
32787;DHT22;19139;49.372;8.580;2023-03-14T16:05:44;19.70;89.90
32787;DHT22;19139;49.372;8.580;2023-03-14T16:08:11;19.70;90.00
32787;DHT22;19139;49.372;8.580;2023-03-14T16:10:37;19.70;90.00
32787;DHT22;19139;49.372;8.580;2023-03-14T16:13:05;19.70;90.00
32787;DHT22;19139;49.372;8.580;2023-03-14T16:15:31;19.70;90.00
32787;DHT22;19139;49.372;8.580;2023-03-14T16:17:58;19.70;90.00
32787;DHT22;19139;49.372;8.580;2023-03-14T16:20:26;19.80;90.00
32787;DHT22;19139;49.372;8.580;2023-03-14T16:22:56;19.70;90.00
32787;DHT22;19139;49.372;8.580;2023-03-14T16:25:23;19.80;90.10
32787;DHT22;19139;49.372;8.580;2023-03-14T16:27:50;19.80;90.10
32787;DHT22;19139;49.372;8.580;2023-03-14T16:30:34;19.80;90.00
32787;DHT22;19139;49.372;8.580;2023-03-14T16:33:00;19.80;90.40
32787;DHT22;19139;49.372;8.580;2023-03-14T16:35:28;19.80;90.10
32787;DHT22;19139;49.372;8.580;2023-03-14T16:37:54;19.80;90.10
32787;DHT22;19139;49.372;8.580;2023-03-14T16:40:21;19.80;90.10
32787;DHT22;19139;49.372;8.580;2023-03-14T16:42:48;19.80;90.10